sensor_id;sensor_type;location;lat;lon;timestamp;temperature;humidity
10660;DHT22;5378;53.206;13.316;2023-05-07T00:00:11;9.30;99.90
10660;DHT22;5378;53.206;13.316;2023-05-07T00:03:01;9.30;99.90
10660;DHT22;5378;53.206;13.316;2023-05-07T00:05:48;9.30;99.90
10660;DHT22;5378;53.206;13.316;2023-05-07T00:08:35;9.20;99.90
10660;DHT22;5378;53.206;13.316;2023-05-07T00:11:22;9.30;99.90
10660;DHT22;5378;53.206;13.316;2023-05-07T00:14:11;9.30;99.90
10660;DHT22;5378;53.206;13.316;2023-05-07T00:16:58;9.30;99.90
10660;DHT22;5378;53.206;13.316;2023-05-07T00:19:45;9.30;99.90
10660;DHT22;5378;53.206;13.316;2023-05-07T00:22:32;9.30;99.90
10660;DHT22;5378;53.206;13.316;2023-05-07T00:25:20;9.20;99.90
10660;DHT22;5378;53.206;13.316;2023-05-07T00:28:07;9.10;99.90
10660;DHT22;5378;53.206;13.316;2023-05-07T00:30:55;9.10;99.90
10660;DHT22;5378;53.206;13.316;2023-05-07T00:33:43;9.00;99.90
10660;DHT22;5378;53.206;13.316;2023-05-07T00:36:30;9.00;99.90
10660;DHT22;5378;53.206;13.316;2023-05-07T00:39:17;9.10;99.90
10660;DHT22;5378;53.206;13.316;2023-05-07T00:42:04;9.10;99.90
10660;DHT22;5378;53.206;13.316;2023-05-07T00:44:51;9.10;99.90
10660;DHT22;5378;53.206;13.316;2023-05-07T00:47:40;9.20;99.90
10660;DHT22;5378;53.206;13.316;2023-05-07T00:50:28;9.10;99.90
10660;DHT22;5378;53.206;13.316;2023-05-07T00:53:16;9.20;99.90
10660;DHT22;5378;53.206;13.316;2023-05-07T00:56:03;9.30;99.90
10660;DHT22;5378;53.206;13.316;2023-05-07T00:58:52;9.20;99.90
10660;DHT22;5378;53.206;13.316;2023-05-07T01:01:39;9.10;99.90
10660;DHT22;5378;53.206;13.316;2023-05-07T01:04:27;9.10;99.90
10660;DHT22;5378;53.206;13.316;2023-05-07T01:07:15;9.20;99.90
10660;DHT22;5378;53.206;13.316;2023-05-07T01:10:03;9.20;99.90
10660;DHT22;5378;53.206;13.316;2023-05-07T01:12:51;9.20;99.90
10660;DHT22;5378;53.206;13.316;2023-05-07T01:15:39;9.10;99.90
10660;DHT22;5378;53.206;13.316;2023-05-07T01:18:27;8.90;99.90
10660;DHT22;5378;53.206;13.316;2023-05-07T01:21:18;9.00;99.90
10660;DHT22;5378;53.206;13.316;2023-05-07T01:24:07;8.90;99.90
10660;DHT22;5378;53.206;13.316;2023-05-07T01:26:54;8.80;99.90
10660;DHT22;5378;53.206;13.316;2023-05-07T01:29:41;8.80;99.90
10660;DHT22;5378;53.206;13.316;2023-05-07T01:32:32;8.70;99.90
10660;DHT22;5378;53.206;13.316;2023-05-07T01:35:24;8.70;99.90
10660;DHT22;5378;53.206;13.316;2023-05-07T01:38:12;8.70;99.90
10660;DHT22;5378;53.206;13.316;2023-05-07T01:41:01;8.60;99.90
10660;DHT22;5378;53.206;13.316;2023-05-07T01:43:50;8.50;99.90
10660;DHT22;5378;53.206;13.316;2023-05-07T01:46:37;8.30;99.90
10660;DHT22;5378;53.206;13.316;2023-05-07T01:49:24;8.20;99.90
10660;DHT22;5378;53.206;13.316;2023-05-07T01:52:12;8.20;99.90
10660;DHT22;5378;53.206;13.316;2023-05-07T01:54:59;8.10;99.90
10660;DHT22;5378;53.206;13.316;2023-05-07T01:57:47;8.10;99.90
10660;DHT22;5378;53.206;13.316;2023-05-07T02:00:35;8.10;99.90
10660;DHT22;5378;53.206;13.316;2023-05-07T02:03:23;8.10;99.90
10660;DHT22;5378;53.206;13.316;2023-05-07T02:06:18;8.10;99.90
10660;DHT22;5378;53.206;13.316;2023-05-07T02:09:05;8.10;99.90
10660;DHT22;5378;53.206;13.316;2023-05-07T02:11:55;8.00;99.90
10660;DHT22;5378;53.206;13.316;2023-05-07T02:14:45;7.90;99.90
10660;DHT22;5378;53.206;13.316;2023-05-07T02:17:32;7.80;99.90
10660;DHT22;5378;53.206;13.316;2023-05-07T02:20:19;7.70;99.90
10660;DHT22;5378;53.206;13.316;2023-05-07T02:23:06;7.70;99.90
10660;DHT22;5378;53.206;13.316;2023-05-07T02:25:53;7.70;99.90
10660;DHT22;5378;53.206;13.316;2023-05-07T02:28:40;7.70;99.90
10660;DHT22;5378;53.206;13.316;2023-05-07T02:31:30;7.70;99.90
10660;DHT22;5378;53.206;13.316;2023-05-07T02:34:17;7.60;99.90
10660;DHT22;5378;53.206;13.316;2023-05-07T02:37:04;7.70;99.90
10660;DHT22;5378;53.206;13.316;2023-05-07T02:39:51;7.60;99.90
10660;DHT22;5378;53.206;13.316;2023-05-07T02:42:38;7.70;99.90
10660;DHT22;5378;53.206;13.316;2023-05-07T02:45:25;7.60;99.90
10660;DHT22;5378;53.206;13.316;2023-05-07T02:48:14;7.60;99.90
10660;DHT22;5378;53.206;13.316;2023-05-07T02:51:02;7.50;99.90
10660;DHT22;5378;53.206;13.316;2023-05-07T02:53:50;7.60;99.90
10660;DHT22;5378;53.206;13.316;2023-05-07T02:56:37;7.50;99.90
10660;DHT22;5378;53.206;13.316;2023-05-07T02:59:24;7.50;99.90
10660;DHT22;5378;53.206;13.316;2023-05-07T03:02:12;7.50;99.90
10660;DHT22;5378;53.206;13.316;2023-05-07T03:05:01;7.50;99.90
10660;DHT22;5378;53.206;13.316;2023-05-07T03:07:48;7.40;99.90
10660;DHT22;5378;53.206;13.316;2023-05-07T03:10:35;7.40;99.90
10660;DHT22;5378;53.206;13.316;2023-05-07T03:13:22;7.40;99.90
10660;DHT22;5378;53.206;13.316;2023-05-07T03:16:10;7.30;99.90
10660;DHT22;5378;53.206;13.316;2023-05-07T03:18:57;7.20;99.90
10660;DHT22;5378;53.206;13.316;2023-05-07T03:21:45;7.20;99.90
10660;DHT22;5378;53.206;13.316;2023-05-07T03:24:33;7.10;99.90
10660;DHT22;5378;53.206;13.316;2023-05-07T03:27:20;7.20;99.90
10660;DHT22;5378;53.206;13.316;2023-05-07T03:30:12;7.20;99.90
10660;DHT22;5378;53.206;13.316;2023-05-07T03:32:58;7.20;99.90
10660;DHT22;5378;53.206;13.316;2023-05-07T03:35:46;7.20;99.90
10660;DHT22;5378;53.206;13.316;2023-05-07T03:38:40;7.20;99.90
10660;DHT22;5378;53.206;13.316;2023-05-07T03:41:28;7.30;99.90
10660;DHT22;5378;53.206;13.316;2023-05-07T03:44:15;7.30;99.90
10660;DHT22;5378;53.206;13.316;2023-05-07T03:47:04;7.30;99.90
10660;DHT22;5378;53.206;13.316;2023-05-07T03:49:51;7.50;99.90
10660;DHT22;5378;53.206;13.316;2023-05-07T03:52:42;7.60;99.90
10660;DHT22;5378;53.206;13.316;2023-05-07T03:55:31;8.20;99.90
10660;DHT22;5378;53.206;13.316;2023-05-07T03:58:19;9.00;99.90
10660;DHT22;5378;53.206;13.316;2023-05-07T04:01:06;9.80;99.90
10660;DHT22;5378;53.206;13.316;2023-05-07T04:03:53;10.60;99.90
10660;DHT22;5378;53.206;13.316;2023-05-07T04:06:41;11.20;99.90
10660;DHT22;5378;53.206;13.316;2023-05-07T04:09:29;11.80;99.90
10660;DHT22;5378;53.206;13.316;2023-05-07T04:12:17;12.20;99.90
10660;DHT22;5378;53.206;13.316;2023-05-07T04:15:05;12.40;99.90
10660;DHT22;5378;53.206;13.316;2023-05-07T04:17:52;12.50;99.90
10660;DHT22;5378;53.206;13.316;2023-05-07T04:20:41;12.20;99.90
10660;DHT22;5378;53.206;13.316;2023-05-07T04:23:31;11.70;99.90
10660;DHT22;5378;53.206;13.316;2023-05-07T04:26:21;11.00;99.90
10660;DHT22;5378;53.206;13.316;2023-05-07T04:29:10;10.40;99.90
10660;DHT22;5378;53.206;13.316;2023-05-07T04:31:58;10.20;99.90
10660;DHT22;5378;53.206;13.316;2023-05-07T04:34:46;10.00;99.90
10660;DHT22;5378;53.206;13.316;2023-05-07T04:37:33;9.70;99.90
10660;DHT22;5378;53.206;13.316;2023-05-07T04:40:21;9.50;99.90
10660;DHT22;5378;53.206;13.316;2023-05-07T04:43:09;10.20;99.90
10660;DHT22;5378;53.206;13.316;2023-05-07T04:46:04;11.50;99.90
10660;DHT22;5378;53.206;13.316;2023-05-07T04:48:52;12.90;99.90
10660;DHT22;5378;53.206;13.316;2023-05-07T04:51:39;13.90;99.90
10660;DHT22;5378;53.206;13.316;2023-05-07T04:54:30;14.80;99.90
10660;DHT22;5378;53.206;13.316;2023-05-07T04:57:18;15.50;99.90
10660;DHT22;5378;53.206;13.316;2023-05-07T05:00:07;15.80;99.90
10660;DHT22;5378;53.206;13.316;2023-05-07T05:02:58;16.00;99.90
10660;DHT22;5378;53.206;13.316;2023-05-07T05:05:45;16.50;99.90
10660;DHT22;5378;53.206;13.316;2023-05-07T05:08:33;17.30;99.90
10660;DHT22;5378;53.206;13.316;2023-05-07T05:11:22;17.70;99.90
10660;DHT22;5378;53.206;13.316;2023-05-07T05:14:10;17.50;99.90
10660;DHT22;5378;53.206;13.316;2023-05-07T05:16:57;17.30;99.90
10660;DHT22;5378;53.206;13.316;2023-05-07T05:19:45;17.40;99.90
10660;DHT22;5378;53.206;13.316;2023-05-07T05:22:33;17.40;99.90
10660;DHT22;5378;53.206;13.316;2023-05-07T05:25:20;17.00;99.90
10660;DHT22;5378;53.206;13.316;2023-05-07T05:28:07;17.10;99.90
10660;DHT22;5378;53.206;13.316;2023-05-07T05:30:55;17.00;99.90
10660;DHT22;5378;53.206;13.316;2023-05-07T05:33:44;16.70;99.90
10660;DHT22;5378;53.206;13.316;2023-05-07T05:36:32;17.20;99.90
10660;DHT22;5378;53.206;13.316;2023-05-07T05:39:20;17.90;99.90
10660;DHT22;5378;53.206;13.316;2023-05-07T05:42:09;18.20;99.90
10660;DHT22;5378;53.206;13.316;2023-05-07T05:44:56;18.50;99.90
10660;DHT22;5378;53.206;13.316;2023-05-07T05:47:44;17.90;99.90
10660;DHT22;5378;53.206;13.316;2023-05-07T05:50:31;17.30;99.90
10660;DHT22;5378;53.206;13.316;2023-05-07T05:53:20;17.10;99.90
10660;DHT22;5378;53.206;13.316;2023-05-07T05:56:07;17.50;99.90
10660;DHT22;5378;53.206;13.316;2023-05-07T05:58:56;17.50;99.90
10660;DHT22;5378;53.206;13.316;2023-05-07T06:01:44;18.00;99.90
10660;DHT22;5378;53.206;13.316;2023-05-07T06:04:31;17.80;99.90
10660;DHT22;5378;53.206;13.316;2023-05-07T06:07:19;18.20;99.90
10660;DHT22;5378;53.206;13.316;2023-05-07T06:10:08;17.70;99.90
10660;DHT22;5378;53.206;13.316;2023-05-07T06:12:56;17.60;99.90
10660;DHT22;5378;53.206;13.316;2023-05-07T06:15:44;18.20;99.90
10660;DHT22;5378;53.206;13.316;2023-05-07T06:18:32;18.80;99.90
10660;DHT22;5378;53.206;13.316;2023-05-07T06:21:22;18.90;99.90
10660;DHT22;5378;53.206;13.316;2023-05-07T06:24:09;18.70;99.90
10660;DHT22;5378;53.206;13.316;2023-05-07T06:26:59;17.80;99.90
10660;DHT22;5378;53.206;13.316;2023-05-07T06:29:48;17.30;99.90
10660;DHT22;5378;53.206;13.316;2023-05-07T06:32:36;17.30;99.90
10660;DHT22;5378;53.206;13.316;2023-05-07T06:35:24;17.40;99.90
10660;DHT22;5378;53.206;13.316;2023-05-07T06:38:12;17.90;99.90
10660;DHT22;5378;53.206;13.316;2023-05-07T06:41:00;18.10;99.90
10660;DHT22;5378;53.206;13.316;2023-05-07T06:43:49;18.80;99.90
10660;DHT22;5378;53.206;13.316;2023-05-07T06:46:48;19.20;99.90
10660;DHT22;5378;53.206;13.316;2023-05-07T06:49:35;18.40;99.90
10660;DHT22;5378;53.206;13.316;2023-05-07T06:52:22;18.60;99.90
10660;DHT22;5378;53.206;13.316;2023-05-07T06:55:09;19.10;99.90
10660;DHT22;5378;53.206;13.316;2023-05-07T06:57:57;19.10;99.90
10660;DHT22;5378;53.206;13.316;2023-05-07T07:00:48;18.90;99.90
10660;DHT22;5378;53.206;13.316;2023-05-07T07:03:35;19.50;99.90
10660;DHT22;5378;53.206;13.316;2023-05-07T07:06:22;20.10;99.60
10660;DHT22;5378;53.206;13.316;2023-05-07T07:09:09;20.20;99.10
10660;DHT22;5378;53.206;13.316;2023-05-07T07:11:56;19.50;98.60
10660;DHT22;5378;53.206;13.316;2023-05-07T07:14:42;18.70;99.90
10660;DHT22;5378;53.206;13.316;2023-05-07T07:17:32;18.80;99.90
10660;DHT22;5378;53.206;13.316;2023-05-07T07:20:19;19.20;99.50
10660;DHT22;5378;53.206;13.316;2023-05-07T07:23:06;19.00;99.90
10660;DHT22;5378;53.206;13.316;2023-05-07T07:25:54;19.50;99.90
10660;DHT22;5378;53.206;13.316;2023-05-07T07:28:44;20.00;99.10
10660;DHT22;5378;53.206;13.316;2023-05-07T07:31:36;19.80;97.80
10660;DHT22;5378;53.206;13.316;2023-05-07T07:34:24;19.30;97.90
10660;DHT22;5378;53.206;13.316;2023-05-07T07:37:11;18.90;98.30
10660;DHT22;5378;53.206;13.316;2023-05-07T07:39:58;19.00;98.90
10660;DHT22;5378;53.206;13.316;2023-05-07T07:42:45;19.50;97.20
10660;DHT22;5378;53.206;13.316;2023-05-07T07:45:32;19.70;96.40
10660;DHT22;5378;53.206;13.316;2023-05-07T07:48:19;19.30;96.10
10660;DHT22;5378;53.206;13.316;2023-05-07T07:51:08;19.10;95.80
10660;DHT22;5378;53.206;13.316;2023-05-07T07:53:55;18.90;95.80
10660;DHT22;5378;53.206;13.316;2023-05-07T07:56:44;19.00;96.00
10660;DHT22;5378;53.206;13.316;2023-05-07T07:59:32;19.30;95.90
10660;DHT22;5378;53.206;13.316;2023-05-07T08:02:19;18.80;96.80
10660;DHT22;5378;53.206;13.316;2023-05-07T08:05:08;18.50;97.30
10660;DHT22;5378;53.206;13.316;2023-05-07T08:07:57;17.60;97.20
10660;DHT22;5378;53.206;13.316;2023-05-07T08:10:48;17.20;98.70
10660;DHT22;5378;53.206;13.316;2023-05-07T08:13:44;16.90;98.90
10660;DHT22;5378;53.206;13.316;2023-05-07T08:16:31;17.40;98.40
10660;DHT22;5378;53.206;13.316;2023-05-07T08:19:19;17.70;97.90
10660;DHT22;5378;53.206;13.316;2023-05-07T08:22:08;17.00;98.50
10660;DHT22;5378;53.206;13.316;2023-05-07T08:24:56;16.50;99.10
10660;DHT22;5378;53.206;13.316;2023-05-07T08:27:44;17.40;98.70
10660;DHT22;5378;53.206;13.316;2023-05-07T08:30:31;18.40;96.80
10660;DHT22;5378;53.206;13.316;2023-05-07T08:33:19;18.50;96.00
10660;DHT22;5378;53.206;13.316;2023-05-07T08:36:07;17.50;97.40
10660;DHT22;5378;53.206;13.316;2023-05-07T08:38:54;16.90;97.30
10660;DHT22;5378;53.206;13.316;2023-05-07T08:41:44;17.80;97.40
10660;DHT22;5378;53.206;13.316;2023-05-07T08:44:34;18.00;96.10
10660;DHT22;5378;53.206;13.316;2023-05-07T08:47:23;18.20;95.70
10660;DHT22;5378;53.206;13.316;2023-05-07T08:50:18;18.90;94.60
10660;DHT22;5378;53.206;13.316;2023-05-07T08:53:07;19.50;95.30
10660;DHT22;5378;53.206;13.316;2023-05-07T08:55:55;19.80;93.60
10660;DHT22;5378;53.206;13.316;2023-05-07T08:58:44;19.30;93.60
10660;DHT22;5378;53.206;13.316;2023-05-07T09:01:31;18.20;94.20
10660;DHT22;5378;53.206;13.316;2023-05-07T09:04:18;18.20;94.80
10660;DHT22;5378;53.206;13.316;2023-05-07T09:07:06;18.40;93.90
10660;DHT22;5378;53.206;13.316;2023-05-07T09:09:57;18.60;94.40
10660;DHT22;5378;53.206;13.316;2023-05-07T09:12:47;18.60;93.40
10660;DHT22;5378;53.206;13.316;2023-05-07T09:15:37;17.50;94.90
10660;DHT22;5378;53.206;13.316;2023-05-07T09:18:24;17.30;95.70
10660;DHT22;5378;53.206;13.316;2023-05-07T09:21:15;17.40;95.50
10660;DHT22;5378;53.206;13.316;2023-05-07T09:24:04;16.50;96.40
10660;DHT22;5378;53.206;13.316;2023-05-07T09:26:57;15.60;97.80
10660;DHT22;5378;53.206;13.316;2023-05-07T09:29:45;15.50;98.40
10660;DHT22;5378;53.206;13.316;2023-05-07T09:32:36;15.40;99.50
10660;DHT22;5378;53.206;13.316;2023-05-07T09:35:30;15.30;99.30
10660;DHT22;5378;53.206;13.316;2023-05-07T09:38:22;14.90;99.90
10660;DHT22;5378;53.206;13.316;2023-05-07T09:41:15;15.00;99.90
10660;DHT22;5378;53.206;13.316;2023-05-07T09:44:11;14.80;99.90
10660;DHT22;5378;53.206;13.316;2023-05-07T09:47:05;14.60;99.90
10660;DHT22;5378;53.206;13.316;2023-05-07T09:49:59;14.80;99.90
10660;DHT22;5378;53.206;13.316;2023-05-07T09:52:50;14.80;99.90
10660;DHT22;5378;53.206;13.316;2023-05-07T09:55:37;15.10;99.90
10660;DHT22;5378;53.206;13.316;2023-05-07T09:58:25;15.40;99.90
10660;DHT22;5378;53.206;13.316;2023-05-07T10:01:13;15.30;99.90
10660;DHT22;5378;53.206;13.316;2023-05-07T10:04:02;15.20;99.90
10660;DHT22;5378;53.206;13.316;2023-05-07T10:06:52;15.50;99.90
10660;DHT22;5378;53.206;13.316;2023-05-07T10:09:41;15.70;99.90
10660;DHT22;5378;53.206;13.316;2023-05-07T10:12:38;15.20;99.90
10660;DHT22;5378;53.206;13.316;2023-05-07T10:15:32;15.00;99.90
10660;DHT22;5378;53.206;13.316;2023-05-07T10:18:22;15.30;99.90
10660;DHT22;5378;53.206;13.316;2023-05-07T10:21:21;15.60;99.90
10660;DHT22;5378;53.206;13.316;2023-05-07T10:24:16;15.70;99.90
10660;DHT22;5378;53.206;13.316;2023-05-07T10:27:09;15.70;99.90
10660;DHT22;5378;53.206;13.316;2023-05-07T10:30:07;15.40;99.90
10660;DHT22;5378;53.206;13.316;2023-05-07T10:33:03;15.20;99.90
10660;DHT22;5378;53.206;13.316;2023-05-07T10:35:57;15.40;99.90
10660;DHT22;5378;53.206;13.316;2023-05-07T10:38:45;15.70;99.90
10660;DHT22;5378;53.206;13.316;2023-05-07T10:41:34;16.00;99.90
10660;DHT22;5378;53.206;13.316;2023-05-07T10:44:26;15.80;99.90
10660;DHT22;5378;53.206;13.316;2023-05-07T10:47:18;15.50;99.90
10660;DHT22;5378;53.206;13.316;2023-05-07T10:50:22;15.50;99.90
10660;DHT22;5378;53.206;13.316;2023-05-07T10:53:24;15.60;99.90
10660;DHT22;5378;53.206;13.316;2023-05-07T10:56:25;15.40;99.90
10660;DHT22;5378;53.206;13.316;2023-05-07T10:59:39;15.30;99.90
10660;DHT22;5378;53.206;13.316;2023-05-07T11:03:06;15.00;99.90
10660;DHT22;5378;53.206;13.316;2023-05-07T11:06:14;15.00;99.90
10660;DHT22;5378;53.206;13.316;2023-05-07T11:09:08;15.20;99.90
10660;DHT22;5378;53.206;13.316;2023-05-07T11:12:03;15.60;99.90
10660;DHT22;5378;53.206;13.316;2023-05-07T11:15:00;16.10;99.90
10660;DHT22;5378;53.206;13.316;2023-05-07T11:17:53;16.20;99.90
10660;DHT22;5378;53.206;13.316;2023-05-07T11:20:47;16.00;99.90
10660;DHT22;5378;53.206;13.316;2023-05-07T11:23:55;16.00;99.90
10660;DHT22;5378;53.206;13.316;2023-05-07T11:26:57;15.90;99.90
10660;DHT22;5378;53.206;13.316;2023-05-07T11:29:47;15.80;99.90
10660;DHT22;5378;53.206;13.316;2023-05-07T11:32:35;15.80;99.90
10660;DHT22;5378;53.206;13.316;2023-05-07T11:35:23;15.80;99.90
10660;DHT22;5378;53.206;13.316;2023-05-07T11:38:10;15.70;99.90
10660;DHT22;5378;53.206;13.316;2023-05-07T11:40:59;15.60;99.90
10660;DHT22;5378;53.206;13.316;2023-05-07T11:43:56;15.80;99.90
10660;DHT22;5378;53.206;13.316;2023-05-07T11:46:43;15.80;99.90
10660;DHT22;5378;53.206;13.316;2023-05-07T11:49:32;16.00;99.90
10660;DHT22;5378;53.206;13.316;2023-05-07T11:52:23;16.00;99.90
10660;DHT22;5378;53.206;13.316;2023-05-07T11:55:10;16.10;99.90
10660;DHT22;5378;53.206;13.316;2023-05-07T11:57:56;15.80;99.90
10660;DHT22;5378;53.206;13.316;2023-05-07T12:00:48;16.20;99.90
10660;DHT22;5378;53.206;13.316;2023-05-07T12:03:35;16.70;99.90
10660;DHT22;5378;53.206;13.316;2023-05-07T12:06:25;17.00;99.40
10660;DHT22;5378;53.206;13.316;2023-05-07T12:09:13;17.20;98.50
10660;DHT22;5378;53.206;13.316;2023-05-07T12:12:03;17.60;99.40
10660;DHT22;5378;53.206;13.316;2023-05-07T12:14:51;18.30;98.70
10660;DHT22;5378;53.206;13.316;2023-05-07T12:17:39;18.20;96.80
10660;DHT22;5378;53.206;13.316;2023-05-07T12:20:26;17.50;96.90
10660;DHT22;5378;53.206;13.316;2023-05-07T12:23:15;16.90;97.80
10660;DHT22;5378;53.206;13.316;2023-05-07T12:26:03;16.60;99.20
10660;DHT22;5378;53.206;13.316;2023-05-07T12:28:51;16.50;99.90
10660;DHT22;5378;53.206;13.316;2023-05-07T12:31:40;16.20;99.90
10660;DHT22;5378;53.206;13.316;2023-05-07T12:34:28;16.30;99.90
10660;DHT22;5378;53.206;13.316;2023-05-07T12:37:15;16.40;99.90
10660;DHT22;5378;53.206;13.316;2023-05-07T12:40:08;16.30;98.90
10660;DHT22;5378;53.206;13.316;2023-05-07T12:42:56;16.20;99.70
10660;DHT22;5378;53.206;13.316;2023-05-07T12:45:44;16.00;99.40
10660;DHT22;5378;53.206;13.316;2023-05-07T12:48:31;15.80;99.90
10660;DHT22;5378;53.206;13.316;2023-05-07T12:51:18;15.70;99.90
10660;DHT22;5378;53.206;13.316;2023-05-07T12:54:05;15.70;99.90
10660;DHT22;5378;53.206;13.316;2023-05-07T12:57:01;15.50;99.90
10660;DHT22;5378;53.206;13.316;2023-05-07T12:59:49;15.70;99.90
10660;DHT22;5378;53.206;13.316;2023-05-07T13:02:38;15.80;99.90
10660;DHT22;5378;53.206;13.316;2023-05-07T13:05:25;15.80;99.90
10660;DHT22;5378;53.206;13.316;2023-05-07T13:08:12;15.80;99.90
10660;DHT22;5378;53.206;13.316;2023-05-07T13:11:11;15.90;99.90
10660;DHT22;5378;53.206;13.316;2023-05-07T13:13:59;16.30;99.90
10660;DHT22;5378;53.206;13.316;2023-05-07T13:16:46;16.60;99.90
10660;DHT22;5378;53.206;13.316;2023-05-07T13:19:33;16.40;99.60
10660;DHT22;5378;53.206;13.316;2023-05-07T13:22:20;16.30;99.90
10660;DHT22;5378;53.206;13.316;2023-05-07T13:25:08;16.30;99.90
10660;DHT22;5378;53.206;13.316;2023-05-07T13:27:56;16.30;99.70
10660;DHT22;5378;53.206;13.316;2023-05-07T13:30:49;16.40;99.40
10660;DHT22;5378;53.206;13.316;2023-05-07T13:33:37;16.40;98.70
10660;DHT22;5378;53.206;13.316;2023-05-07T13:36:24;16.10;98.40
10660;DHT22;5378;53.206;13.316;2023-05-07T13:39:12;16.10;99.00
10660;DHT22;5378;53.206;13.316;2023-05-07T13:42:00;16.30;98.80
10660;DHT22;5378;53.206;13.316;2023-05-07T13:44:46;16.30;98.30
10660;DHT22;5378;53.206;13.316;2023-05-07T13:47:35;16.30;98.60
10660;DHT22;5378;53.206;13.316;2023-05-07T13:50:25;16.30;98.20
10660;DHT22;5378;53.206;13.316;2023-05-07T13:53:12;16.30;98.40
10660;DHT22;5378;53.206;13.316;2023-05-07T13:56:02;16.20;99.10
10660;DHT22;5378;53.206;13.316;2023-05-07T13:58:50;16.10;98.40
10660;DHT22;5378;53.206;13.316;2023-05-07T14:01:44;16.20;98.30
10660;DHT22;5378;53.206;13.316;2023-05-07T14:04:32;16.50;98.20
10660;DHT22;5378;53.206;13.316;2023-05-07T14:07:20;16.70;98.20
10660;DHT22;5378;53.206;13.316;2023-05-07T14:10:07;16.80;97.70
10660;DHT22;5378;53.206;13.316;2023-05-07T14:12:56;16.90;97.30
10660;DHT22;5378;53.206;13.316;2023-05-07T14:15:44;16.80;97.70
10660;DHT22;5378;53.206;13.316;2023-05-07T14:18:32;16.80;97.80
10660;DHT22;5378;53.206;13.316;2023-05-07T14:21:21;16.80;97.00
10660;DHT22;5378;53.206;13.316;2023-05-07T14:24:08;17.10;96.80
10660;DHT22;5378;53.206;13.316;2023-05-07T14:26:55;17.20;97.00
10660;DHT22;5378;53.206;13.316;2023-05-07T14:29:42;17.30;96.40
10660;DHT22;5378;53.206;13.316;2023-05-07T14:32:31;17.30;97.20
10660;DHT22;5378;53.206;13.316;2023-05-07T14:35:18;17.00;96.90
10660;DHT22;5378;53.206;13.316;2023-05-07T14:38:07;16.90;96.50
10660;DHT22;5378;53.206;13.316;2023-05-07T14:40:54;17.00;97.00
10660;DHT22;5378;53.206;13.316;2023-05-07T14:43:41;17.00;97.80
10660;DHT22;5378;53.206;13.316;2023-05-07T14:46:29;17.10;97.70
10660;DHT22;5378;53.206;13.316;2023-05-07T14:49:17;16.90;96.10
10660;DHT22;5378;53.206;13.316;2023-05-07T14:52:04;17.00;97.00
10660;DHT22;5378;53.206;13.316;2023-05-07T14:54:53;17.00;96.60
10660;DHT22;5378;53.206;13.316;2023-05-07T14:57:40;16.80;96.70
10660;DHT22;5378;53.206;13.316;2023-05-07T15:00:28;16.70;97.10
10660;DHT22;5378;53.206;13.316;2023-05-07T15:03:15;16.70;97.70
10660;DHT22;5378;53.206;13.316;2023-05-07T15:06:03;16.60;97.70
10660;DHT22;5378;53.206;13.316;2023-05-07T15:08:51;16.60;98.40
10660;DHT22;5378;53.206;13.316;2023-05-07T15:11:39;16.70;97.20
10660;DHT22;5378;53.206;13.316;2023-05-07T15:14:26;16.90;97.90
10660;DHT22;5378;53.206;13.316;2023-05-07T15:17:13;17.20;96.10
10660;DHT22;5378;53.206;13.316;2023-05-07T15:20:00;17.30;96.80
10660;DHT22;5378;53.206;13.316;2023-05-07T15:22:50;17.20;97.10
10660;DHT22;5378;53.206;13.316;2023-05-07T15:25:37;17.30;97.00
10660;DHT22;5378;53.206;13.316;2023-05-07T15:28:26;17.30;96.80
10660;DHT22;5378;53.206;13.316;2023-05-07T15:31:16;17.10;97.30
10660;DHT22;5378;53.206;13.316;2023-05-07T15:34:03;17.10;97.10
10660;DHT22;5378;53.206;13.316;2023-05-07T15:36:51;17.30;96.50
10660;DHT22;5378;53.206;13.316;2023-05-07T15:39:37;17.10;96.70
10660;DHT22;5378;53.206;13.316;2023-05-07T15:42:25;17.00;96.20
10660;DHT22;5378;53.206;13.316;2023-05-07T15:45:13;16.80;96.90
10660;DHT22;5378;53.206;13.316;2023-05-07T15:48:00;16.60;97.20
10660;DHT22;5378;53.206;13.316;2023-05-07T15:50:48;16.40;98.00
10660;DHT22;5378;53.206;13.316;2023-05-07T15:53:36;16.40;97.20
10660;DHT22;5378;53.206;13.316;2023-05-07T15:56:23;16.30;96.90
10660;DHT22;5378;53.206;13.316;2023-05-07T15:59:11;16.30;97.00
10660;DHT22;5378;53.206;13.316;2023-05-07T16:02:02;16.30;97.50
10660;DHT22;5378;53.206;13.316;2023-05-07T16:04:49;16.50;97.10
10660;DHT22;5378;53.206;13.316;2023-05-07T16:07:36;16.50;96.70
10660;DHT22;5378;53.206;13.316;2023-05-07T16:10:24;16.50;96.80
10660;DHT22;5378;53.206;13.316;2023-05-07T16:13:11;16.40;97.00
10660;DHT22;5378;53.206;13.316;2023-05-07T16:15:58;16.40;97.20
10660;DHT22;5378;53.206;13.316;2023-05-07T16:18:47;16.40;97.60
10660;DHT22;5378;53.206;13.316;2023-05-07T16:21:34;16.50;97.70
10660;DHT22;5378;53.206;13.316;2023-05-07T16:24:21;16.30;96.50
10660;DHT22;5378;53.206;13.316;2023-05-07T16:27:08;16.10;96.90
10660;DHT22;5378;53.206;13.316;2023-05-07T16:29:55;15.90;98.00
10660;DHT22;5378;53.206;13.316;2023-05-07T16:32:43;15.70;97.70
10660;DHT22;5378;53.206;13.316;2023-05-07T16:35:31;15.60;98.30
10660;DHT22;5378;53.206;13.316;2023-05-07T16:38:18;15.60;97.90
10660;DHT22;5378;53.206;13.316;2023-05-07T16:41:05;15.60;97.90
10660;DHT22;5378;53.206;13.316;2023-05-07T16:43:52;15.70;98.10
10660;DHT22;5378;53.206;13.316;2023-05-07T16:46:39;15.90;97.50
10660;DHT22;5378;53.206;13.316;2023-05-07T16:49:26;16.00;97.00
10660;DHT22;5378;53.206;13.316;2023-05-07T16:52:14;16.10;97.20
10660;DHT22;5378;53.206;13.316;2023-05-07T16:55:02;16.20;97.10
10660;DHT22;5378;53.206;13.316;2023-05-07T16:57:49;16.10;96.70
10660;DHT22;5378;53.206;13.316;2023-05-07T17:00:37;16.00;97.00
10660;DHT22;5378;53.206;13.316;2023-05-07T17:03:33;16.00;96.40
10660;DHT22;5378;53.206;13.316;2023-05-07T17:06:20;16.00;96.80
10660;DHT22;5378;53.206;13.316;2023-05-07T17:09:08;16.00;96.80
10660;DHT22;5378;53.206;13.316;2023-05-07T17:11:56;16.00;96.80
10660;DHT22;5378;53.206;13.316;2023-05-07T17:14:43;15.90;96.50
10660;DHT22;5378;53.206;13.316;2023-05-07T17:17:30;15.80;96.40
10660;DHT22;5378;53.206;13.316;2023-05-07T17:20:17;15.80;96.00
10660;DHT22;5378;53.206;13.316;2023-05-07T17:23:04;15.80;96.40
10660;DHT22;5378;53.206;13.316;2023-05-07T17:25:52;15.70;96.10
10660;DHT22;5378;53.206;13.316;2023-05-07T17:28:39;15.70;96.30
10660;DHT22;5378;53.206;13.316;2023-05-07T17:31:26;15.70;96.80
10660;DHT22;5378;53.206;13.316;2023-05-07T17:34:13;15.70;97.70
10660;DHT22;5378;53.206;13.316;2023-05-07T17:37:01;15.60;97.90
10660;DHT22;5378;53.206;13.316;2023-05-07T17:39:48;15.50;97.40
10660;DHT22;5378;53.206;13.316;2023-05-07T17:42:38;15.50;97.40
10660;DHT22;5378;53.206;13.316;2023-05-07T17:45:25;15.50;97.70
10660;DHT22;5378;53.206;13.316;2023-05-07T17:48:13;15.50;98.00
10660;DHT22;5378;53.206;13.316;2023-05-07T17:51:00;15.40;98.30